createdAt,value
2023-04-05T00:03:17.947Z,9.75
2023-04-05T00:07:02.484Z,10.48
2023-04-05T00:10:44.300Z,10.35
2023-04-05T00:14:26.078Z,10.68
2023-04-05T00:18:07.906Z,10.20
2023-04-05T00:21:49.669Z,10.88
2023-04-05T00:25:31.381Z,10.52
2023-04-05T00:29:13.178Z,10.20
2023-04-05T00:32:54.993Z,11.63
2023-04-05T00:36:36.942Z,10.80
2023-04-05T00:40:18.778Z,11.60
2023-04-05T00:44:00.580Z,10.40
2023-04-05T00:47:43.295Z,11.93
2023-04-05T00:51:25.815Z,11.98
2023-04-05T00:55:09.136Z,11.70
2023-04-05T00:58:53.326Z,11.90
2023-04-05T01:02:48.348Z,11.45
2023-04-05T01:06:51.378Z,12.43
2023-04-05T01:10:39.340Z,12.52
2023-04-05T01:14:21.428Z,11.32
2023-04-05T01:18:03.977Z,13.18
2023-04-05T01:22:14.435Z,11.80
2023-04-05T01:26:15.074Z,11.88
2023-04-05T01:30:04.106Z,11.50
2023-04-05T01:33:59.440Z,12.07
2023-04-05T01:37:42.296Z,11.60
2023-04-05T01:41:24.116Z,12.82
2023-04-05T01:45:06.309Z,12.88
2023-04-05T01:48:48.037Z,12.40
2023-04-05T01:52:29.816Z,12.43
2023-04-05T01:56:11.568Z,12.45
2023-04-05T01:59:53.379Z,12.07
2023-04-05T02:03:35.312Z,12.77
2023-04-05T02:07:17.097Z,12.80
2023-04-05T02:10:58.878Z,12.15
2023-04-05T02:14:40.674Z,13.98
2023-04-05T02:18:22.574Z,11.38
2023-04-05T02:22:04.435Z,11.55
2023-04-05T02:25:46.333Z,12.25
2023-04-05T02:29:28.526Z,12.75
2023-04-05T02:33:10.432Z,13.13
2023-04-05T02:36:52.675Z,13.60
2023-04-05T02:40:34.829Z,11.80
2023-04-05T02:44:16.891Z,13.18
2023-04-05T02:47:58.720Z,12.88
2023-04-05T02:51:40.744Z,13.52
2023-04-05T02:55:22.512Z,13.52
2023-04-05T02:59:04.602Z,13.18
2023-04-05T03:02:46.515Z,13.52
2023-04-05T03:06:28.456Z,12.82
2023-04-05T03:10:10.495Z,12.85
2023-04-05T03:13:52.256Z,13.25
2023-04-05T03:17:34.056Z,12.27
2023-04-05T03:21:18.422Z,14.82
2023-04-05T03:25:00.227Z,13.18
2023-04-05T03:28:45.299Z,13.18
2023-04-05T03:32:27.177Z,14.38
2023-04-05T03:36:09.416Z,14.30
2023-04-05T03:39:51.233Z,13.00
2023-04-05T03:43:33.112Z,12.57
2023-04-05T03:47:14.943Z,14.43
2023-04-05T03:50:56.778Z,14.63
2023-04-05T03:54:40.829Z,14.27
2023-04-05T03:58:22.651Z,14.95
2023-04-05T04:02:04.469Z,14.02
2023-04-05T04:05:46.745Z,13.50
2023-04-05T04:09:29.897Z,13.90
2023-04-05T04:13:11.736Z,14.02
2023-04-05T04:16:53.461Z,15.13
2023-04-05T04:20:35.417Z,15.15
2023-04-05T04:24:19.468Z,14.90
2023-04-05T04:28:01.608Z,14.77
2023-04-05T04:31:48.399Z,14.75
2023-04-05T04:35:39.115Z,12.90
2023-04-05T04:39:26.719Z,14.25
2023-04-05T04:43:14.387Z,14.02
2023-04-05T04:46:56.177Z,15.05
2023-04-05T04:50:39.184Z,13.88
2023-04-05T04:54:20.941Z,15.43
2023-04-05T04:58:09.869Z,14.77
2023-04-05T05:01:51.711Z,14.50
2023-04-05T05:05:33.475Z,13.75
2023-04-05T05:09:15.353Z,13.73
2023-04-05T05:12:57.125Z,15.23
2023-04-05T05:16:38.910Z,14.98
2023-04-05T05:20:21.273Z,14.82
2023-04-05T05:24:03.074Z,14.48
2023-04-05T05:27:44.826Z,15.63
2023-04-05T05:31:29.301Z,15.65
2023-04-05T05:35:11.131Z,16.50
2023-04-05T05:38:54.032Z,15.85
2023-04-05T05:42:35.970Z,15.23
2023-04-05T05:46:20.754Z,14.85
2023-04-05T05:50:03.897Z,14.40
2023-04-05T05:53:45.638Z,15.38
2023-04-05T05:57:27.427Z,14.60
2023-04-05T06:01:11.976Z,14.52
2023-04-05T06:04:55.148Z,15.48
2023-04-05T06:08:38.116Z,16.98
2023-04-05T06:12:22.748Z,16.27
2023-04-05T06:16:04.820Z,17.13
2023-04-05T06:19:46.576Z,16.55
2023-04-05T06:23:28.797Z,17.27
2023-04-05T06:27:10.590Z,16.70
2023-04-05T06:30:52.350Z,17.38
2023-04-05T06:34:34.126Z,16.52
2023-04-05T06:38:16.182Z,14.88
2023-04-05T06:41:58.222Z,14.93
2023-04-05T06:45:40.055Z,15.00
2023-04-05T06:49:21.860Z,16.13
2023-04-05T06:53:04.791Z,15.25
2023-04-05T06:56:46.911Z,15.57
2023-04-05T07:00:28.706Z,15.07
2023-04-05T07:04:10.707Z,15.68
2023-04-05T07:07:53.214Z,14.98
2023-04-05T07:11:35.398Z,13.60
2023-04-05T07:15:17.287Z,14.43
2023-04-05T07:18:59.028Z,14.10
2023-04-05T07:22:40.974Z,15.20
2023-04-05T07:26:23.032Z,15.15
2023-04-05T07:30:08.177Z,15.10
2023-04-05T07:33:49.909Z,14.38
2023-04-05T07:37:31.675Z,13.68
2023-04-05T07:41:13.565Z,14.10
2023-04-05T07:44:55.477Z,15.10
2023-04-05T07:48:37.231Z,14.15
2023-04-05T07:52:18.987Z,14.27
2023-04-05T07:56:11.967Z,14.27
2023-04-05T07:59:55.767Z,14.07
2023-04-05T08:03:40.036Z,15.50
2023-04-05T08:07:23.287Z,14.02
2023-04-05T08:11:05.313Z,13.10
2023-04-05T08:14:47.157Z,14.02
2023-04-05T08:18:29.000Z,12.50
2023-04-05T08:22:11.308Z,13.88
2023-04-05T08:25:53.972Z,12.10
2023-04-05T08:29:35.792Z,13.25
2023-04-05T08:33:17.608Z,12.55
2023-04-05T08:37:00.200Z,14.65
2023-04-05T08:40:46.580Z,15.35
2023-04-05T08:44:30.850Z,14.10
2023-04-05T08:48:12.696Z,13.63
2023-04-05T08:51:55.222Z,14.48
2023-04-05T08:55:39.536Z,15.32
2023-04-05T08:59:22.220Z,15.13
2023-04-05T09:03:05.863Z,13.55
2023-04-05T09:06:49.907Z,14.57
2023-04-05T09:10:32.152Z,15.88
2023-04-05T09:14:14.449Z,15.95
2023-04-05T09:17:57.237Z,15.98
2023-04-05T09:21:58.020Z,15.82
2023-04-05T09:25:42.356Z,15.45
2023-04-05T09:29:30.613Z,16.05
2023-04-05T09:33:18.866Z,15.00
2023-04-05T09:37:01.250Z,15.15
2023-04-05T09:40:49.042Z,14.90
2023-04-05T09:45:01.318Z,16.52
2023-04-05T09:48:50.267Z,15.32
2023-04-05T09:52:32.677Z,15.60
2023-04-05T09:56:14.937Z,15.43
2023-04-05T09:59:56.772Z,16.58
2023-04-05T10:03:48.251Z,15.82
2023-04-05T10:07:30.331Z,16.70
2023-04-05T10:11:13.614Z,15.73
2023-04-05T10:14:56.896Z,15.88
2023-04-05T10:18:50.711Z,14.73
2023-04-05T10:22:35.278Z,16.67
2023-04-05T10:26:31.387Z,15.43
2023-04-05T10:30:13.599Z,15.53
2023-04-05T10:34:06.336Z,16.23
2023-04-05T10:38:23.439Z,16.30
2023-04-05T10:42:09.787Z,14.13
2023-04-05T10:45:54.126Z,15.77
2023-04-05T10:49:40.699Z,15.18
2023-04-05T10:53:22.765Z,15.10
2023-04-05T10:57:09.483Z,15.45
2023-04-05T11:04:34.845Z,14.50
2023-04-05T11:08:16.781Z,14.07
2023-04-05T11:11:58.544Z,14.50
2023-04-05T11:15:40.531Z,13.57
2023-04-05T11:19:49.260Z,13.70
2023-04-05T11:23:31.136Z,14.75
2023-04-05T11:27:12.981Z,13.13
2023-04-05T11:31:02.105Z,13.50
2023-04-05T11:34:44.631Z,15.38
2023-04-05T11:38:26.423Z,14.65
2023-04-05T11:42:16.004Z,15.68
2023-04-05T11:45:57.812Z,14.82
2023-04-05T11:49:40.545Z,14.10
2023-04-05T11:53:22.316Z,12.95
2023-04-05T11:57:04.187Z,13.82
2023-04-05T12:00:46.516Z,12.52
2023-04-05T12:04:28.381Z,12.80
2023-04-05T12:08:10.211Z,11.60
2023-04-05T12:11:55.164Z,11.23
2023-04-05T12:15:43.150Z,12.48
2023-04-05T12:19:30.688Z,11.30
2023-04-05T12:23:12.677Z,11.20
2023-04-05T12:26:57.054Z,10.18
2023-04-05T12:30:54.731Z,10.63
2023-04-05T12:34:37.048Z,12.03
2023-04-05T12:38:18.816Z,12.00
2023-04-05T12:42:01.131Z,12.48
2023-04-05T12:45:44.407Z,11.32
2023-04-05T12:49:28.686Z,10.48
2023-04-05T12:53:18.245Z,12.05
2023-04-05T12:57:04.465Z,12.15
2023-04-05T13:00:46.696Z,12.00
2023-04-05T13:04:28.462Z,10.80
2023-04-05T13:08:10.342Z,12.07
2023-04-05T13:11:52.095Z,12.00
2023-04-05T13:15:34.213Z,10.32
2023-04-05T13:19:16.055Z,11.55
2023-04-05T13:22:58.000Z,11.80
2023-04-05T13:26:39.792Z,11.90
2023-04-05T13:30:21.650Z,12.52
2023-04-05T13:34:03.687Z,12.32
2023-04-05T13:37:45.488Z,10.60
2023-04-05T13:41:27.273Z,11.02
2023-04-05T13:45:09.796Z,10.82
2023-04-05T13:48:51.556Z,11.05
2023-04-05T13:52:33.620Z,11.93
2023-04-05T13:56:15.379Z,11.35
2023-04-05T13:59:57.249Z,12.77
2023-04-05T14:03:39.288Z,12.98
2023-04-05T14:07:22.694Z,12.18
2023-04-05T14:11:05.383Z,12.30
2023-04-05T14:14:47.170Z,11.85
2023-04-05T14:18:28.959Z,12.48
2023-04-05T14:22:10.941Z,13.48
2023-04-05T14:25:53.225Z,12.82
2023-04-05T14:29:35.000Z,13.18
2023-04-05T14:33:17.261Z,11.57
2023-04-05T14:37:00.851Z,11.88
2023-04-05T14:40:43.188Z,13.25
2023-04-05T14:44:26.884Z,13.45
2023-04-05T14:48:08.753Z,12.95
2023-04-05T14:51:50.723Z,14.50
2023-04-05T14:55:35.495Z,14.70
2023-04-05T14:59:17.358Z,12.82
2023-04-05T15:02:59.299Z,13.60
2023-04-05T15:06:42.249Z,12.48
2023-04-05T15:10:24.030Z,11.15
2023-04-05T15:14:08.484Z,11.63
2023-04-05T15:17:51.714Z,10.60
2023-04-05T15:21:33.777Z,9.90
2023-04-05T15:25:15.679Z,9.13
2023-04-05T15:28:57.405Z,8.30
2023-04-05T15:32:39.246Z,9.88
2023-04-05T15:36:21.303Z,8.93
2023-04-05T15:40:03.885Z,9.07
2023-04-05T15:43:46.799Z,8.93
2023-04-05T15:47:28.688Z,9.73
2023-04-05T15:51:12.034Z,7.32
2023-04-05T15:54:53.802Z,8.52
2023-04-05T15:58:37.045Z,9.02
2023-04-05T16:02:19.245Z,8.60
2023-04-05T16:06:01.016Z,7.78
2023-04-05T16:09:44.208Z,8.52
2023-04-05T16:13:26.164Z,9.05
2023-04-05T16:17:08.014Z,9.38
2023-04-05T16:20:50.592Z,8.23
2023-04-05T16:24:33.342Z,7.55
2023-04-05T16:28:15.147Z,7.80
2023-04-05T16:31:57.002Z,7.90
2023-04-05T16:35:38.860Z,7.30
2023-04-05T16:39:20.680Z,7.72
2023-04-05T16:43:02.419Z,7.10
2023-04-05T16:46:46.047Z,6.88
2023-04-05T16:50:27.914Z,6.15
2023-04-05T16:54:09.750Z,6.80
2023-04-05T16:57:53.999Z,6.18
2023-04-05T17:01:36.040Z,6.10
2023-04-05T17:05:17.967Z,6.07
2023-04-05T17:09:00.138Z,5.65
2023-04-05T17:12:42.230Z,6.47
2023-04-05T17:16:24.052Z,6.32
2023-04-05T17:20:06.586Z,6.03
2023-04-05T17:23:48.495Z,5.75
2023-04-05T17:27:30.361Z,5.22
2023-04-05T17:31:12.237Z,5.50
2023-04-05T17:34:54.332Z,5.25
2023-04-05T17:38:36.181Z,5.18
2023-04-05T17:42:18.524Z,5.18
2023-04-05T17:46:00.322Z,5.50
2023-04-05T17:49:42.099Z,5.43
2023-04-05T17:53:23.992Z,5.65
2023-04-05T17:57:06.585Z,5.57
2023-04-05T18:00:52.147Z,5.20
2023-04-05T18:04:34.052Z,5.85
2023-04-05T18:08:16.530Z,5.28
2023-04-05T18:11:58.854Z,7.00
2023-04-05T18:15:41.399Z,5.43
2023-04-05T18:19:23.216Z,5.03
2023-04-05T18:23:05.030Z,4.35
2023-04-05T18:26:47.106Z,4.50
2023-04-05T18:30:28.876Z,4.60
2023-04-05T18:34:10.657Z,4.32
2023-04-05T18:37:52.474Z,3.72
2023-04-05T18:41:34.233Z,3.50
2023-04-05T18:45:16.319Z,3.30
2023-04-05T18:48:58.116Z,4.10
2023-04-05T18:52:39.922Z,2.90
2023-04-05T18:56:21.695Z,3.65
2023-04-05T19:00:04.835Z,3.17
2023-04-05T19:03:47.820Z,3.05
2023-04-05T19:07:29.674Z,2.50
2023-04-05T19:11:13.714Z,2.70
2023-04-05T19:14:55.944Z,2.17
2023-04-05T19:18:37.730Z,2.35
2023-04-05T19:22:19.758Z,2.30
2023-04-05T19:26:01.543Z,2.65
2023-04-05T19:29:43.846Z,2.30
2023-04-05T19:33:25.627Z,1.75
2023-04-05T19:37:07.522Z,2.15
2023-04-05T19:40:49.353Z,2.53
2023-04-05T19:44:49.693Z,1.55
2023-04-05T19:48:44.333Z,2.55
2023-04-05T19:52:48.367Z,2.65
2023-04-05T19:56:32.265Z,2.35
2023-04-05T20:00:52.564Z,2.00
2023-04-05T20:04:38.902Z,2.40
2023-04-05T20:08:20.839Z,2.33
2023-04-05T20:12:04.059Z,2.65
2023-04-05T20:15:47.700Z,2.17
2023-04-05T20:19:31.333Z,2.42
2023-04-05T20:23:17.161Z,2.30
2023-04-05T20:26:59.041Z,2.40
2023-04-05T20:30:40.860Z,2.97
2023-04-05T20:34:31.324Z,2.85
2023-04-05T20:38:13.094Z,3.10
2023-04-05T20:41:58.443Z,3.15
2023-04-05T20:45:40.256Z,3.65
2023-04-05T20:49:23.006Z,3.55
2023-04-05T20:53:06.084Z,3.80
2023-04-05T20:56:47.965Z,3.55
2023-04-05T21:00:29.840Z,4.10
2023-04-05T21:04:11.654Z,4.20
2023-04-05T21:07:53.408Z,4.07
2023-04-05T21:11:35.333Z,4.65
2023-04-05T21:15:17.129Z,4.85
2023-04-05T21:18:59.152Z,5.00
2023-04-05T21:22:41.044Z,4.80
2023-04-05T21:26:22.806Z,4.97
2023-04-05T21:30:05.073Z,4.60
2023-04-05T21:33:46.903Z,4.75
2023-04-05T21:37:28.657Z,4.95
2023-04-05T21:41:10.742Z,4.80
2023-04-05T21:44:52.520Z,4.68
2023-04-05T21:48:34.316Z,4.35
2023-04-05T21:52:16.238Z,3.97
2023-04-05T21:55:58.008Z,4.43
2023-04-05T21:59:40.011Z,4.15
2023-04-05T22:03:21.838Z,4.05
2023-04-05T22:07:03.822Z,3.78
2023-04-05T22:10:45.617Z,4.00
2023-04-05T22:14:28.162Z,3.40
2023-04-05T22:18:10.120Z,3.60
2023-04-05T22:21:55.093Z,3.65
2023-04-05T22:25:36.854Z,2.90
2023-04-05T22:29:19.437Z,3.92
2023-04-05T22:33:02.005Z,3.42
2023-04-05T22:36:43.975Z,4.07
2023-04-05T22:40:27.439Z,3.90
2023-04-05T22:44:09.379Z,3.45
2023-04-05T22:47:51.344Z,3.53
2023-04-05T22:51:33.148Z,3.10
2023-04-05T22:55:15.039Z,3.30
2023-04-05T22:58:56.888Z,3.70
2023-04-05T23:02:38.708Z,3.28
2023-04-05T23:06:20.510Z,3.63
2023-04-05T23:10:02.373Z,2.92
2023-04-05T23:13:44.486Z,3.30
2023-04-05T23:17:26.598Z,3.53
2023-04-05T23:21:08.361Z,2.85
2023-04-05T23:24:50.180Z,3.13
2023-04-05T23:28:32.034Z,3.10
2023-04-05T23:32:13.792Z,3.30
2023-04-05T23:35:55.682Z,3.20
2023-04-05T23:39:37.485Z,3.03
2023-04-05T23:43:19.269Z,2.72
2023-04-05T23:47:01.202Z,2.90
2023-04-05T23:50:43.060Z,3.05
2023-04-05T23:54:24.903Z,3.35
2023-04-05T23:58:07.975Z,2.55
